ADDS METAR Data INFO
IDs: Format: Raw Decoded Include TAF

Data at: 0345 UTC 20 Feb 2018

KBIV 200321Z AUTO 20014KT 10SM FEW015 SCT028 OVC060 15/12 A2984 RMK AO2 PK WND 21028/0256 T01500122
KBIV 200253Z AUTO 21020G27KT 10SM BKN015 BKN026 OVC060 15/12 A2984 RMK AO2 PK WND 21031/0223 RAE11 SLP107 P0000 60002 T01500122 50001
KBIV 200246Z AUTO 21021G28KT 10SM BKN015 BKN026 OVC045 15/12 A2984 RMK AO2 PK WND 21031/0223 RAE11 P0000 T01500122
KBIV 200153Z AUTO 21020G31KT 7SM -RA OVC012 14/12 A2985 RMK AO2 PK WND 23035/0054 RAB36 SLP110 P0002 T01440122
KBIV 200053Z AUTO 21018G31KT 10SM OVC013 14/12 A2984 RMK AO2 PK WND 20033/0012 WSHFT 2352 LTG DSNT NE SLP109 T01440117
KBIV 200012Z AUTO 21018G33KT 10SM FEW002 OVC012 14/12 A2984 RMK AO2 PK WND 20033/0012 WSHFT 2352 T01390117
KBIV 200000Z AUTO 21017G27KT 7SM SCT002 OVC012 13/12 A2984 RMK AO2 PK WND 21027/0000 T01330117
KBIV 192357Z AUTO 22016G24KT 2 1/2SM BR BKN002 OVC010 13/12 A2984 RMK AO2 T01330117
KBIV 192353Z AUTO 22014G20KT 1SM BR BKN002 OVC010 11/09 A2984 RMK AO2 RAE38 SLP107 P0003 60023 T01060089 10106 20056 53005
KBIV 192344Z AUTO 14003KT 1 3/4SM BR OVC002 07/06 A2984 RMK AO2 RAE38 P0003 T00670061
KBIV 192253Z AUTO 03005KT 5SM -RA BR OVC004 06/05 A2982 RMK AO2 CIG 002V008 SLP103 P0003 T00610050
KBIV 192226Z AUTO 05004KT 4SM -RA BR OVC003 06/05 A2982 RMK AO2 P0003 T00610050
KBIV 192212Z AUTO 07005KT 2SM -RA BR OVC003 06/06 A2982 RMK AO2 P0002 T00610056
KBIV 192200Z AUTO 07005KT 1 1/4SM -RA BR OVC004 06/05 A2982 RMK AO2 P0001 T00610050
KBIV 192157Z AUTO 08005KT 1 3/4SM -RA BR OVC005 06/05 A2982 RMK AO2 P0001 T00610050
KBIV 192153Z AUTO 08006KT 3SM -RA BR OVC005 06/05 A2982 RMK AO2 SLP104 P0005 T00610050
KBIV 192132Z AUTO 07006KT 3SM -RA BR OVC005 06/06 A2983 RMK AO2 P0005 T00610056
KBIV 192122Z AUTO 07005KT 2SM -RA BR OVC007 06/05 A2982 RMK AO2 P0003 T00610050
KBIV 192114Z AUTO 08006KT 1SM -RA BR OVC006 06/05 A2981 RMK AO2 P0003 T00610050
KBIV 192107Z AUTO 08006KT 1 1/2SM -RA BR OVC006 06/05 A2981 RMK AO2 P0001 T00610050
KBIV 192053Z AUTO 07005KT 1 1/4SM -RA BR OVC005 06/05 A2982 RMK AO2 RAE1958B14 SLP101 P0005 60012 T00610050 56018
KBIV 192046Z AUTO 06004KT 1 1/4SM -RA BR OVC005 06/05 A2982 RMK AO2 RAE1958B14 P0003 T00610050
KBIV 192035Z AUTO 08006KT 1 1/4SM -RA BR OVC003 06/05 A2982 RMK AO2 RAE1958B14 P0002 T00560050
KBIV 191953Z AUTO 11005KT 1 1/2SM -RA BR OVC002 06/05 A2982 RMK AO2 RAE34B39 SLP102 P0003 T00610050
KBIV 191946Z AUTO 10006KT 1 1/4SM -RA BR OVC003 06/05 A2982 RMK AO2 RAE34B39 P0003 T00560050
KBIV 191935Z AUTO 10008KT 1 3/4SM BR OVC003 06/05 A2981 RMK AO2 RAE34 P0002 T00560050
KBIV 191906Z AUTO 09006KT 1SM -RA BR VV004 06/05 A2983 RMK AO2 P0001 T00560050
KBIV 191853Z AUTO 09005KT 3/4SM -RA BR VV004 06/05 A2984 RMK AO2 RAB01 SLP109 P0004 T00560050
KBIV 191829Z AUTO 10006KT 3/4SM -RA BR OVC003 06/05 A2985 RMK AO2 RAB01 P0001 T00610050
KBIV 191817Z AUTO 09005KT 1 1/4SM -RA BR OVC003 06/05 A2985 RMK AO2 RAB01 PRESFR P0000 T00560050
KBIV 191800Z AUTO 12005KT 2 1/2SM BR OVC003 06/04 A2987 RMK AO2 T00560044
KBIV 191753Z AUTO 11005KT 3SM BR OVC003 06/04 A2987 RMK AO2 RAB08E49 SLP119 P0004 60004 T00560044 10061 20039 58007
KBIV 191743Z AUTO 13008KT 3SM -RA BR OVC003 06/04 A2987 RMK AO2 RAB08 P0004 T00560044
KBIV 191735Z AUTO 13008KT 1 3/4SM RA BR OVC003 06/04 A2988 RMK AO2 RAB08 P0003 T00560044
KBIV 191728Z AUTO 12007KT 2SM RA BR OVC004 06/04 A2988 RMK AO2 RAB08 P0002 T00560044
KBIV 191653Z AUTO 09005KT 4SM BR OVC004 06/04 A2989 RMK AO2 RAB29E42 PRESFR SLP125 P0000 T00610044
KBIV 191553Z AUTO 18006KT 5SM BR OVC003 06/04 A2992 RMK AO2 SLP138 T00560044
KBIV 191453Z AUTO 12005KT 5SM BR OVC004 05/03 A2989 RMK AO2 SLP127 T00500033 58006
KBIV 191439Z AUTO 16004KT 6SM BR OVC004 05/04 A2990 RMK AO2 T00500039
KBIV 191353Z AUTO 20007KT 6SM BR OVC006 04/03 A2992 RMK AO2 SLP137 T00440033
KBIV 191253Z AUTO 20008KT 9SM OVC007 04/03 A2993 RMK AO2 SLP140 T00390028
KBIV 191211Z AUTO 19008KT 9SM OVC009 04/02 A2990 RMK AO2 T00390022
KBIV 191153Z AUTO 20009KT 8SM OVC011 04/02 A2991 RMK AO2 SLP134 60000 T00440022 10050 20033 53004
KBIV 191124Z AUTO 20010KT 10SM OVC014 05/01 A2990 RMK AO2 T00500011
KBIV 191053Z AUTO 19008KT 10SM OVC019 04/01 A2988 RMK AO2 SLP125 T00440011
KBIV 191004Z AUTO 18009KT 10SM BKN025 OVC055 05/01 A2990 RMK AO2 T00500006
KBIV 190953Z AUTO 19008KT 10SM SCT027 OVC055 05/00 A2990 RMK AO2 SLP129 T00500000
KBIV 190853Z AUTO 19005KT 10SM OVC049 04/M01 A2990 RMK AO2 RAB40E49 SLP129 P0000 60000 T00391006 58013
KBIV 190753Z AUTO 16008KT 10SM BKN060 OVC100 03/M01 A2991 RMK AO2 SLP134 T00331011
KBIV 190653Z AUTO 17010KT 10SM SCT055 04/M01 A2992 RMK AO2 SLP139 T00391011
KBIV 190553Z AUTO 17014KT 10SM CLR 03/M02 A2993 RMK AO2 SLP143 T00331017 10039 20011 56018
KBIV 190453Z AUTO 16013G23KT 10SM CLR 03/M02 A2994 RMK AO2 SLP147 T00281017 400391017
KBIV 190353Z AUTO 16012G19KT 10SM CLR 03/M02 A2997 RMK AO2 SLP154 T00281017
KBIV 190253Z AUTO 15017G22KT 10SM CLR 02/M02 A2999 RMK AO2 SLP162 T00221017 56028
KBIV 190153Z AUTO 14013KT 10SM CLR 02/M03 A3000 RMK AO2 SLP167 T00171028
KBIV 190053Z AUTO 15017KT 10SM CLR 02/M04 A3004 RMK AO2 SLP181 T00171039
KBIV 182353Z AUTO 15015G20KT 10SM CLR 01/M05 A3007 RMK AO2 SLP191 T00111050 10039 20011 56027
KBIV 182253Z AUTO 15012KT 10SM CLR 02/M04 A3009 RMK AO2 SLP198 T00221044
KBIV 182153Z AUTO 16011KT 10SM CLR 03/M05 A3013 RMK AO2 SLP209 T00331050
KBIV 182053Z AUTO 16011KT 10SM CLR 04/M04 A3015 RMK AO2 SLP218 T00391044 56035
KBIV 181953Z AUTO 17011KT 10SM CLR 03/M04 A3019 RMK AO2 SLP230 T00331044
KBIV 181853Z AUTO 19013KT 10SM CLR 03/M04 A3022 RMK AO2 SLP240 T00281044
KBIV 181753Z AUTO 19011KT 10SM CLR 02/M04 A3026 RMK AO2 SLP254 T00171039 10017 21011 50005
KBIV 181653Z AUTO 19008KT 10SM CLR 01/M04 A3027 RMK AO2 SLP258 T00061044
KBIV 181553Z AUTO 17008KT 10SM CLR 01/M03 A3025 RMK AO2 SLP252 T00111033